createdAt,value
2023-05-20T00:01:53.851Z,1.40
2023-05-20T00:04:21.389Z,3.20
2023-05-20T00:06:48.675Z,2.03
2023-05-20T00:09:17.553Z,2.23
2023-05-20T00:11:46.018Z,1.13
2023-05-20T00:14:13.275Z,1.27
2023-05-20T00:16:40.702Z,2.70
2023-05-20T00:19:08.216Z,0.70
2023-05-20T00:21:35.796Z,1.30
2023-05-20T00:24:03.513Z,1.70
2023-05-20T00:26:31.123Z,1.37
2023-05-20T00:28:58.278Z,1.77
2023-05-20T00:31:25.769Z,2.57
2023-05-20T00:33:52.907Z,2.67
2023-05-20T00:36:20.103Z,3.70
2023-05-20T00:38:47.458Z,1.23
2023-05-20T00:41:14.741Z,2.13
2023-05-20T00:43:41.891Z,1.20
2023-05-20T00:46:09.320Z,1.50
2023-05-20T00:48:41.956Z,1.50
2023-05-20T00:51:09.863Z,0.53
2023-05-20T00:53:37.646Z,0.97
2023-05-20T00:56:06.146Z,1.47
2023-05-20T00:58:33.592Z,0.97
2023-05-20T01:01:01.066Z,2.07
2023-05-20T01:03:29.750Z,1.97
2023-05-20T01:05:57.322Z,1.13
2023-05-20T01:08:26.077Z,2.20
2023-05-20T01:11:05.043Z,1.50
2023-05-20T01:13:42.199Z,1.60
2023-05-20T01:16:12.038Z,2.20
2023-05-20T01:18:42.181Z,1.43
2023-05-20T01:21:14.223Z,2.17
2023-05-20T01:23:42.581Z,1.47
2023-05-20T01:26:16.691Z,0.60
2023-05-20T01:28:44.029Z,1.17
2023-05-20T01:31:34.163Z,1.43
2023-05-20T01:34:01.783Z,2.43
2023-05-20T01:36:29.911Z,1.30
2023-05-20T01:38:58.368Z,2.90
2023-05-20T01:41:27.152Z,1.93
2023-05-20T01:43:55.609Z,1.80
2023-05-20T01:46:23.051Z,1.83
2023-05-20T01:48:50.332Z,1.33
2023-05-20T01:51:18.068Z,1.70
2023-05-20T01:53:46.193Z,2.53
2023-05-20T01:56:13.489Z,2.10
2023-05-20T01:58:41.008Z,1.43
2023-05-20T02:01:08.929Z,1.47
2023-05-20T02:03:36.426Z,1.37
2023-05-20T02:06:04.090Z,1.33
2023-05-20T02:08:31.458Z,2.27
2023-05-20T02:10:58.751Z,1.53
2023-05-20T02:13:26.135Z,1.77
2023-05-20T02:15:53.498Z,1.27
2023-05-20T02:18:20.841Z,2.43
2023-05-20T02:20:48.049Z,1.77
2023-05-20T02:23:15.643Z,1.40
2023-05-20T02:25:43.602Z,2.43
2023-05-20T02:28:13.507Z,0.93
2023-05-20T02:30:40.980Z,1.17
2023-05-20T02:33:10.066Z,1.20
2023-05-20T02:35:37.356Z,2.13
2023-05-20T02:38:04.581Z,2.00
2023-05-20T02:40:32.138Z,2.63
2023-05-20T02:43:00.198Z,2.30
2023-05-20T02:45:27.748Z,3.60
2023-05-20T02:47:55.022Z,2.47
2023-05-20T02:50:22.487Z,1.93
2023-05-20T02:52:50.156Z,1.53
2023-05-20T02:55:17.592Z,1.60
2023-05-20T02:57:45.721Z,2.40
2023-05-20T03:00:16.893Z,1.33
2023-05-20T03:02:45.113Z,2.60
2023-05-20T03:05:12.870Z,2.50
2023-05-20T03:07:40.482Z,1.00
2023-05-20T03:10:09.702Z,2.50
2023-05-20T03:12:36.897Z,1.80
2023-05-20T03:15:04.412Z,1.30
2023-05-20T03:17:31.697Z,1.93
2023-05-20T03:19:59.136Z,1.87
2023-05-20T03:22:26.377Z,2.50
2023-05-20T03:24:53.689Z,1.73
2023-05-20T03:27:21.684Z,0.37
2023-05-20T03:29:49.382Z,1.30
2023-05-20T03:32:16.950Z,0.97
2023-05-20T03:34:44.421Z,1.93
2023-05-20T03:37:11.823Z,2.60
2023-05-20T03:39:38.983Z,1.07
2023-05-20T03:42:06.985Z,2.37
2023-05-20T03:44:34.207Z,1.23
2023-05-20T03:47:01.471Z,1.30
2023-05-20T03:49:28.726Z,0.90
2023-05-20T03:51:56.197Z,1.90
2023-05-20T03:54:23.426Z,1.07
2023-05-20T03:56:52.094Z,0.30
2023-05-20T03:59:19.881Z,1.17
2023-05-20T04:01:47.226Z,1.07
2023-05-20T04:04:14.560Z,1.13
2023-05-20T04:06:41.921Z,2.07
2023-05-20T04:09:09.695Z,1.83
2023-05-20T04:11:37.441Z,1.10
2023-05-20T04:14:04.676Z,2.50
2023-05-20T04:16:31.947Z,1.43
2023-05-20T04:19:00.486Z,1.03
2023-05-20T04:21:27.771Z,3.20
2023-05-20T04:23:54.990Z,0.90
2023-05-20T04:26:22.901Z,1.37
2023-05-20T04:28:50.431Z,2.30
2023-05-20T04:31:18.813Z,2.37
2023-05-20T04:33:46.915Z,1.90
2023-05-20T04:36:16.926Z,3.23
2023-05-20T04:38:44.950Z,1.97
2023-05-20T04:41:12.289Z,1.90
2023-05-20T04:43:40.502Z,1.67
2023-05-20T04:46:07.945Z,1.73
2023-05-20T04:48:35.443Z,3.17
2023-05-20T04:51:03.422Z,1.50
2023-05-20T04:53:34.174Z,1.30
2023-05-20T04:56:01.623Z,1.43
2023-05-20T04:58:29.919Z,1.30
2023-05-20T05:00:57.183Z,1.13
2023-05-20T05:03:24.790Z,0.90
2023-05-20T05:05:56.954Z,0.77
2023-05-20T05:08:24.245Z,2.20
2023-05-20T05:10:51.596Z,2.00
2023-05-20T05:13:19.306Z,2.37
2023-05-20T05:15:46.646Z,1.30
2023-05-20T05:18:14.377Z,1.67
2023-05-20T05:20:41.883Z,2.23
2023-05-20T05:23:09.167Z,1.60
2023-05-20T05:25:36.470Z,0.97
2023-05-20T05:28:04.761Z,1.40
2023-05-20T05:30:32.640Z,1.60
2023-05-20T05:32:59.886Z,0.83
2023-05-20T05:35:27.142Z,0.97
2023-05-20T05:37:54.449Z,2.23
2023-05-20T05:40:21.740Z,1.13
2023-05-20T05:42:48.914Z,2.00
2023-05-20T05:45:18.672Z,2.50
2023-05-20T05:47:46.516Z,1.27
2023-05-20T05:50:13.890Z,3.60
2023-05-20T05:52:41.639Z,1.80
2023-05-20T05:55:10.249Z,1.73
2023-05-20T05:57:37.402Z,2.87
2023-05-20T06:00:05.754Z,1.80
2023-05-20T06:02:36.499Z,2.13
2023-05-20T06:05:04.679Z,2.63
2023-05-20T06:07:32.194Z,1.30
2023-05-20T06:09:59.742Z,0.83
2023-05-20T06:12:27.203Z,1.80
2023-05-20T06:14:54.557Z,1.37
2023-05-20T06:17:21.756Z,1.30
2023-05-20T06:19:52.085Z,1.53
2023-05-20T06:22:19.382Z,1.27
2023-05-20T06:24:46.781Z,1.07
2023-05-20T06:27:16.723Z,0.80
2023-05-20T06:29:44.147Z,0.90
2023-05-20T06:32:11.410Z,1.87
2023-05-20T06:34:39.350Z,1.57
2023-05-20T06:37:06.725Z,1.03
2023-05-20T06:39:33.868Z,1.50
2023-05-20T06:42:01.076Z,1.20
2023-05-20T06:44:28.305Z,1.03
2023-05-20T06:46:55.580Z,4.40
2023-05-20T06:49:24.318Z,1.53
2023-05-20T06:51:51.975Z,1.17
2023-05-20T06:54:19.615Z,2.37
2023-05-20T06:56:47.608Z,0.73
2023-05-20T06:59:14.747Z,1.70
2023-05-20T07:01:42.120Z,1.60
2023-05-20T07:04:09.495Z,1.07
2023-05-20T07:06:36.723Z,1.93
2023-05-20T07:09:05.643Z,2.30
2023-05-20T07:11:34.947Z,2.33
2023-05-20T07:14:02.168Z,1.17
2023-05-20T07:16:29.830Z,1.30
2023-05-20T07:18:57.113Z,1.60
2023-05-20T07:21:24.337Z,1.47
2023-05-20T07:23:51.594Z,2.70
2023-05-20T07:26:19.034Z,2.03
2023-05-20T07:28:47.399Z,2.07
2023-05-20T07:31:15.182Z,2.27
2023-05-20T07:33:42.475Z,2.00
2023-05-20T07:36:11.307Z,1.50
2023-05-20T07:38:41.016Z,2.70
2023-05-20T07:41:09.032Z,2.27
2023-05-20T07:43:36.427Z,1.63
2023-05-20T07:46:04.044Z,2.67
2023-05-20T07:48:31.844Z,1.87
2023-05-20T07:50:59.968Z,3.03
2023-05-20T07:53:27.534Z,1.03
2023-05-20T07:55:54.853Z,2.10
2023-05-20T07:58:22.165Z,1.40
2023-05-20T08:00:49.631Z,3.03
2023-05-20T08:03:17.731Z,2.27
2023-05-20T08:05:45.516Z,3.73
2023-05-20T08:08:12.730Z,2.97
2023-05-20T08:10:40.054Z,2.13
2023-05-20T08:13:07.634Z,2.90
2023-05-20T08:15:36.764Z,2.00
2023-05-20T08:18:04.042Z,3.23
2023-05-20T08:20:32.324Z,1.20
2023-05-20T08:22:59.627Z,2.07
2023-05-20T08:25:26.843Z,2.03
2023-05-20T08:27:54.128Z,2.50
2023-05-20T08:30:21.554Z,1.97
2023-05-20T08:32:51.158Z,3.30
2023-05-20T08:35:18.594Z,1.87
2023-05-20T08:37:45.987Z,2.67
2023-05-20T08:40:14.019Z,2.50
2023-05-20T08:42:45.039Z,2.40
2023-05-20T08:45:13.490Z,1.33
2023-05-20T08:47:43.575Z,3.73
2023-05-20T08:50:18.032Z,1.67
2023-05-20T08:52:47.347Z,1.87
2023-05-20T08:56:00.860Z,1.97
2023-05-20T08:58:32.970Z,4.20
2023-05-20T09:01:01.225Z,2.77
2023-05-20T09:03:29.300Z,1.17
2023-05-20T09:06:05.842Z,1.17
2023-05-20T09:08:34.471Z,1.30
2023-05-20T09:11:01.701Z,1.87
2023-05-20T09:13:31.928Z,1.97
2023-05-20T09:16:02.306Z,2.70
2023-05-20T09:18:33.138Z,0.97
2023-05-20T09:21:07.257Z,0.63
2023-05-20T09:23:38.854Z,1.63
2023-05-20T09:26:06.382Z,2.03
2023-05-20T09:28:34.134Z,1.40
2023-05-20T09:31:02.358Z,1.57
2023-05-20T09:33:30.799Z,1.63
2023-05-20T09:36:06.530Z,1.10
2023-05-20T09:38:39.149Z,0.83
2023-05-20T09:41:14.245Z,1.93
2023-05-20T09:43:42.676Z,1.40
2023-05-20T09:46:11.088Z,1.23
2023-05-20T09:48:38.810Z,1.10
2023-05-20T09:51:08.273Z,2.43
2023-05-20T09:53:36.476Z,1.47
2023-05-20T09:56:04.445Z,1.23
2023-05-20T09:58:34.029Z,1.73
2023-05-20T10:01:01.535Z,1.20
2023-05-20T10:03:29.655Z,1.97
2023-05-20T10:06:21.281Z,0.87
2023-05-20T10:09:41.416Z,0.80
2023-05-20T10:12:36.073Z,0.47
2023-05-20T10:15:23.026Z,1.50
2023-05-20T10:18:08.675Z,1.87
2023-05-20T10:20:56.192Z,0.43
2023-05-20T10:23:25.212Z,0.80
2023-05-20T10:25:54.113Z,1.60
2023-05-20T10:28:31.368Z,1.40
2023-05-20T10:30:59.903Z,0.60
2023-05-20T10:33:30.552Z,0.63
2023-05-20T10:36:01.397Z,1.27
2023-05-20T10:38:28.696Z,1.03
2023-05-20T10:40:57.742Z,1.33
2023-05-20T10:43:29.213Z,1.40
2023-05-20T10:45:58.571Z,0.70
2023-05-20T10:48:28.509Z,0.63
2023-05-20T10:51:00.545Z,0.90
2023-05-20T10:53:33.930Z,0.80
2023-05-20T10:56:03.017Z,1.10
2023-05-20T10:58:38.972Z,1.03
2023-05-20T11:01:06.856Z,0.67
2023-05-20T11:03:36.390Z,0.90
2023-05-20T11:06:12.502Z,1.33
2023-05-20T11:08:39.944Z,1.30
2023-05-20T11:11:07.549Z,1.50
2023-05-20T11:13:34.932Z,0.80
2023-05-20T11:16:03.681Z,1.07
2023-05-20T11:18:32.424Z,0.70
2023-05-20T11:21:02.932Z,0.90
2023-05-20T11:23:30.985Z,1.33
2023-05-20T11:25:58.751Z,0.93
2023-05-20T11:28:26.130Z,1.47
2023-05-20T11:30:54.100Z,1.20
2023-05-20T11:33:21.671Z,0.93
2023-05-20T11:35:51.028Z,0.50
2023-05-20T11:38:19.351Z,0.47
2023-05-20T11:40:52.206Z,0.93
2023-05-20T11:43:20.625Z,1.27
2023-05-20T11:45:53.363Z,1.27
2023-05-20T11:48:21.067Z,1.60
2023-05-20T11:50:53.791Z,0.95
2023-05-20T11:53:23.007Z,0.88
2023-05-20T11:55:53.100Z,0.95
2023-05-20T11:58:25.840Z,0.50
2023-05-20T12:01:01.893Z,0.50
2023-05-20T12:03:33.461Z,1.17
2023-05-20T12:06:04.860Z,1.38
2023-05-20T12:08:32.098Z,0.90
2023-05-20T12:10:59.480Z,1.05
2023-05-20T12:13:26.827Z,1.63
2023-05-20T12:15:53.984Z,1.60
2023-05-20T12:18:21.483Z,1.17
2023-05-20T12:20:48.741Z,1.83
2023-05-20T12:23:16.297Z,0.50
2023-05-20T12:25:44.145Z,1.17
2023-05-20T12:28:11.266Z,1.92
2023-05-20T12:30:38.613Z,1.38
2023-05-20T12:33:06.803Z,1.00
2023-05-20T12:35:39.121Z,1.08
2023-05-20T12:38:07.160Z,0.60
2023-05-20T12:40:35.755Z,0.90
2023-05-20T12:43:04.925Z,1.23
2023-05-20T12:45:32.935Z,0.95
2023-05-20T12:48:01.217Z,1.60
2023-05-20T12:50:29.254Z,1.00
2023-05-20T12:53:01.240Z,1.38
2023-05-20T12:55:30.002Z,0.65
2023-05-20T12:57:57.825Z,1.85
2023-05-20T13:00:26.098Z,1.85
2023-05-20T13:02:55.090Z,1.17
2023-05-20T13:05:22.994Z,1.15
2023-05-20T13:07:50.400Z,0.77
2023-05-20T13:10:18.317Z,1.58
2023-05-20T13:12:46.468Z,0.70
2023-05-20T13:15:15.124Z,0.63
2023-05-20T13:17:43.362Z,1.55
2023-05-20T13:20:11.405Z,1.55
2023-05-20T13:22:38.990Z,1.15
2023-05-20T13:25:06.956Z,1.58
2023-05-20T13:27:34.216Z,0.90
2023-05-20T13:30:02.168Z,1.13
2023-05-20T13:32:39.840Z,2.15
2023-05-20T13:35:07.836Z,2.35
2023-05-20T13:37:35.113Z,0.90
2023-05-20T13:40:02.289Z,0.52
2023-05-20T13:42:34.810Z,1.05
2023-05-20T13:45:02.056Z,0.60
2023-05-20T13:47:29.365Z,1.60
2023-05-20T13:49:56.930Z,1.55
2023-05-20T13:52:24.632Z,1.25
2023-05-20T13:54:51.832Z,1.13
2023-05-20T13:57:19.111Z,1.88
2023-05-20T13:59:46.450Z,0.93
2023-05-20T14:02:16.025Z,0.77
2023-05-20T14:04:45.537Z,1.17
2023-05-20T14:07:13.272Z,1.00
2023-05-20T14:09:40.583Z,1.67
2023-05-20T14:12:08.374Z,1.27
2023-05-20T14:14:35.904Z,1.20
2023-05-20T14:17:03.178Z,1.58
2023-05-20T14:19:30.546Z,2.28
2023-05-20T14:22:03.366Z,1.50
2023-05-20T14:24:30.960Z,1.30
2023-05-20T14:26:58.221Z,0.93
2023-05-20T14:29:25.463Z,1.20
2023-05-20T14:31:53.107Z,2.10
2023-05-20T14:34:21.534Z,0.88
2023-05-20T14:36:48.887Z,2.00
2023-05-20T14:39:17.390Z,1.33
2023-05-20T14:41:44.840Z,2.10
2023-05-20T14:44:12.033Z,2.15
2023-05-20T14:46:39.458Z,1.95
2023-05-20T14:49:06.686Z,2.72
2023-05-20T14:51:33.916Z,1.40
2023-05-20T14:54:01.270Z,1.23
2023-05-20T14:56:28.743Z,1.67
2023-05-20T14:58:56.311Z,0.80
2023-05-20T15:01:23.576Z,1.15
2023-05-20T15:03:51.300Z,2.20
2023-05-20T15:06:19.321Z,3.40
2023-05-20T15:08:47.086Z,1.50
2023-05-20T15:11:14.748Z,2.08
2023-05-20T15:13:42.123Z,3.28
2023-05-20T15:16:09.820Z,2.20
2023-05-20T15:18:37.038Z,1.65
2023-05-20T15:21:05.227Z,1.08
2023-05-20T15:23:32.390Z,0.90
2023-05-20T15:26:00.030Z,1.27
2023-05-20T15:28:27.465Z,0.68
2023-05-20T15:30:56.557Z,1.27
2023-05-20T15:33:24.267Z,0.95
2023-05-20T15:35:52.040Z,0.77
2023-05-20T15:38:19.361Z,0.73
2023-05-20T15:40:47.654Z,0.95
2023-05-20T15:43:14.922Z,1.20
2023-05-20T15:45:42.221Z,1.35
2023-05-20T15:48:09.679Z,0.55
2023-05-20T15:50:37.491Z,1.67
2023-05-20T15:53:08.866Z,0.80
2023-05-20T15:55:36.846Z,1.08
2023-05-20T15:58:04.572Z,1.38
2023-05-20T16:00:32.567Z,1.25
2023-05-20T16:03:00.051Z,1.40
2023-05-20T16:05:27.698Z,1.42
2023-05-20T16:07:55.634Z,1.20
2023-05-20T16:10:25.280Z,0.73
2023-05-20T16:12:53.818Z,1.08
2023-05-20T16:15:21.203Z,0.90
2023-05-20T16:17:48.830Z,0.93
2023-05-20T16:20:16.581Z,1.23
2023-05-20T16:22:43.862Z,1.83
2023-05-20T16:25:14.790Z,1.05
2023-05-20T16:27:42.075Z,1.05
2023-05-20T16:30:10.278Z,0.85
2023-05-20T16:32:37.486Z,1.20
2023-05-20T16:35:05.964Z,1.52
2023-05-20T16:37:33.302Z,1.00
2023-05-20T16:40:00.940Z,1.95
2023-05-20T16:42:28.314Z,1.65
2023-05-20T16:44:55.594Z,1.85
2023-05-20T16:47:22.885Z,1.55
2023-05-20T16:49:50.290Z,2.33
2023-05-20T16:52:23.675Z,1.05
2023-05-20T16:54:52.611Z,1.77
2023-05-20T16:57:19.860Z,1.00
2023-05-20T16:59:47.659Z,1.27
2023-05-20T17:02:18.202Z,0.80
2023-05-20T17:04:45.503Z,1.63
2023-05-20T17:07:14.304Z,0.85
2023-05-20T17:09:41.639Z,1.30
2023-05-20T17:12:08.884Z,1.98
2023-05-20T17:14:37.550Z,1.25
2023-05-20T17:17:05.581Z,0.50
2023-05-20T17:19:32.887Z,1.10
2023-05-20T17:22:00.699Z,1.90
2023-05-20T17:24:27.885Z,1.83
2023-05-20T17:26:55.265Z,0.98
2023-05-20T17:29:22.777Z,1.55
2023-05-20T17:31:50.132Z,0.75
2023-05-20T17:34:17.445Z,0.90
2023-05-20T17:36:44.817Z,0.82
2023-05-20T17:39:12.586Z,1.35
2023-05-20T17:41:41.345Z,0.82
2023-05-20T17:44:10.190Z,0.60
2023-05-20T17:46:37.500Z,0.82
2023-05-20T17:49:05.101Z,1.60
2023-05-20T17:51:33.256Z,2.30
2023-05-20T17:54:00.810Z,1.90
2023-05-20T17:56:28.158Z,1.38
2023-05-20T17:58:56.247Z,1.05
2023-05-20T18:01:23.913Z,1.33
2023-05-20T18:03:51.544Z,1.40
2023-05-20T18:06:19.000Z,0.93
2023-05-20T18:08:46.178Z,1.25
2023-05-20T18:11:13.414Z,0.47
2023-05-20T18:13:41.229Z,1.45
2023-05-20T18:16:08.624Z,0.80
2023-05-20T18:18:35.908Z,0.82
2023-05-20T18:21:06.259Z,1.53
2023-05-20T18:23:33.659Z,1.70
2023-05-20T18:26:01.799Z,1.30
2023-05-20T18:28:28.974Z,2.25
2023-05-20T18:30:58.041Z,1.48
2023-05-20T18:33:25.360Z,2.03
2023-05-20T18:35:54.829Z,2.20
2023-05-20T18:38:22.370Z,1.73
2023-05-20T18:40:49.882Z,1.50
2023-05-20T18:43:17.499Z,1.57
2023-05-20T18:45:45.636Z,1.13
2023-05-20T18:48:20.203Z,3.53
2023-05-20T18:50:53.926Z,0.83
2023-05-20T18:53:21.156Z,1.73
2023-05-20T18:55:48.947Z,0.97
2023-05-20T18:58:16.780Z,2.07
2023-05-20T19:00:44.062Z,1.20
2023-05-20T19:03:11.805Z,1.47
2023-05-20T19:05:39.687Z,1.57
2023-05-20T19:08:07.294Z,1.50
2023-05-20T19:10:34.451Z,1.70
2023-05-20T19:13:01.722Z,1.33
2023-05-20T19:15:30.460Z,2.53
2023-05-20T19:17:57.709Z,1.33
2023-05-20T19:20:25.150Z,1.80
2023-05-20T19:22:52.783Z,5.87
2023-05-20T19:25:20.420Z,5.47
2023-05-20T19:27:47.719Z,4.30
2023-05-20T19:30:14.901Z,2.23
2023-05-20T19:32:42.254Z,1.50
2023-05-20T19:35:09.724Z,2.70
2023-05-20T19:37:36.916Z,3.63
2023-05-20T19:40:04.759Z,3.73
2023-05-20T19:42:32.278Z,4.30
2023-05-20T19:44:59.564Z,4.17
2023-05-20T19:47:27.145Z,3.07
2023-05-20T19:49:54.470Z,3.97
2023-05-20T19:52:21.639Z,4.70
2023-05-20T19:54:49.000Z,2.97
2023-05-20T19:57:16.604Z,3.70
2023-05-20T19:59:43.802Z,5.50
2023-05-20T20:02:11.256Z,4.47
2023-05-20T20:04:38.584Z,4.20
2023-05-20T20:07:07.771Z,6.13
2023-05-20T20:09:35.327Z,3.33
2023-05-20T20:12:03.096Z,5.37
2023-05-20T20:14:30.878Z,4.30
2023-05-20T20:16:59.978Z,5.17
2023-05-20T20:19:28.670Z,6.93
2023-05-20T20:21:56.955Z,6.27
2023-05-20T20:24:24.478Z,7.00
2023-05-20T20:26:54.515Z,6.60
2023-05-20T20:29:24.627Z,7.63
2023-05-20T20:31:52.596Z,9.77
2023-05-20T20:34:19.831Z,9.27
2023-05-20T20:36:47.638Z,8.77
2023-05-20T20:39:19.270Z,9.13
2023-05-20T20:41:50.462Z,6.07
2023-05-20T20:44:19.211Z,2.30
2023-05-20T20:46:46.915Z,2.43
2023-05-20T20:49:14.285Z,2.50
2023-05-20T20:51:41.976Z,1.93
2023-05-20T20:54:09.266Z,2.07
2023-05-20T20:56:37.424Z,2.00
2023-05-20T20:59:05.882Z,2.63
2023-05-20T21:01:36.617Z,2.63
2023-05-20T21:04:05.428Z,2.33
2023-05-20T21:06:33.208Z,2.07
2023-05-20T21:09:04.118Z,2.17
2023-05-20T21:11:31.552Z,1.83
2023-05-20T21:13:58.697Z,2.37
2023-05-20T21:16:28.357Z,2.53
2023-05-20T21:18:55.646Z,2.07
2023-05-20T21:21:22.860Z,2.60
2023-05-20T21:23:52.231Z,1.60
2023-05-20T21:26:21.652Z,2.27
2023-05-20T21:28:48.839Z,1.83
2023-05-20T21:31:16.283Z,1.27
2023-05-20T21:33:43.548Z,2.03
2023-05-20T21:36:10.824Z,2.47
2023-05-20T21:38:38.102Z,2.40
2023-05-20T21:41:05.477Z,3.10
2023-05-20T21:43:32.753Z,2.13
2023-05-20T21:45:59.981Z,3.30
2023-05-20T21:48:27.297Z,3.20
2023-05-20T21:50:54.442Z,2.37
2023-05-20T21:53:23.106Z,1.63
2023-05-20T21:55:50.766Z,3.63
2023-05-20T21:58:17.926Z,1.93
2023-05-20T22:00:45.604Z,1.00
2023-05-20T22:03:13.682Z,1.83
2023-05-20T22:05:46.045Z,1.57
2023-05-20T22:08:13.574Z,0.90
2023-05-20T22:10:41.060Z,1.00
2023-05-20T22:13:11.203Z,1.63
2023-05-20T22:15:38.354Z,2.63
2023-05-20T22:18:07.608Z,1.83
2023-05-20T22:20:35.482Z,1.47
2023-05-20T22:23:04.770Z,2.07
2023-05-20T22:25:32.551Z,1.80
2023-05-20T22:27:59.893Z,2.73
2023-05-20T22:30:27.127Z,1.33
2023-05-20T22:32:54.350Z,1.50
2023-05-20T22:35:22.507Z,1.73
2023-05-20T22:37:50.300Z,1.77
2023-05-20T22:40:17.845Z,2.30
2023-05-20T22:42:45.137Z,1.63
2023-05-20T22:45:12.384Z,1.33
2023-05-20T22:47:39.649Z,1.60
2023-05-20T22:50:08.081Z,1.43
2023-05-20T22:52:37.116Z,1.80
2023-05-20T22:55:04.711Z,1.77
2023-05-20T22:57:31.938Z,1.70
2023-05-20T22:59:59.300Z,1.27
2023-05-20T23:02:26.547Z,1.57
2023-05-20T23:04:53.767Z,1.67
2023-05-20T23:07:22.091Z,1.53
2023-05-20T23:09:49.447Z,0.47
2023-05-20T23:12:16.983Z,1.50
2023-05-20T23:14:44.165Z,1.73
2023-05-20T23:17:11.450Z,0.80
2023-05-20T23:19:38.779Z,2.07
2023-05-20T23:22:06.036Z,3.30
2023-05-20T23:24:33.232Z,1.57
2023-05-20T23:27:00.421Z,2.27
2023-05-20T23:29:27.683Z,1.17
2023-05-20T23:31:54.904Z,2.23
2023-05-20T23:34:22.192Z,1.73
2023-05-20T23:36:50.214Z,2.43
2023-05-20T23:39:18.451Z,1.70
2023-05-20T23:41:45.864Z,1.20
2023-05-20T23:44:13.103Z,1.50
2023-05-20T23:46:40.294Z,1.83
2023-05-20T23:49:07.538Z,1.57
2023-05-20T23:51:35.792Z,1.43
2023-05-20T23:54:02.950Z,1.57
2023-05-20T23:56:30.147Z,1.97
2023-05-20T23:58:58.160Z,1.97
